Time;durP1;ratioP1;P1;durP2;ratioP2;P2;SDS_P1;SDS_P2;PMS_P1;PMS_P2;Temp;Humidity;BMP_temperature;BMP_pressure;BME280_temperature;BME280_humidity;BME280_pressure;Samples;Min_cycle;Max_cycle;Signal;HPM_P1;HPM_P2
2021/07/22 00:02:11;;;;;;;11.80;10.60;;;;;;;18.47;62.64;101899.81;5037452;28;20171;-67
2021/07/22 00:04:36;;;;;;;11.60;10.40;;;;;;;17.80;63.89;101907.03;5037297;28;20225;-67
2021/07/22 00:07:02;;;;;;;13.20;10.90;;;;;;;18.32;62.96;101905.16;5040187;28;20162;-67
2021/07/22 00:09:27;;;;;;;11.83;10.67;;;;;;;18.46;62.63;101908.63;5041229;28;20236;-67
2021/07/22 00:11:52;;;;;;;11.23;10.20;;;;;;;18.27;62.84;101902.53;5041195;28;20181;-67
2021/07/22 00:14:18;;;;;;;11.30;10.10;;;;;;;18.11;62.97;101904.34;5041304;28;20174;-67
2021/07/22 00:16:45;;;;;;;11.60;10.40;;;;;;;18.51;61.85;101904.22;5044164;28;20204;-67
2021/07/22 00:19:10;;;;;;;12.00;9.87;;;;;;;18.64;61.23;101893.56;5061042;28;20481;-67
2021/07/22 00:21:35;;;;;;;11.50;10.43;;;;;;;18.47;61.66;101899.81;5061413;28;20382;-67
2021/07/22 00:24:01;;;;;;;10.93;9.83;;;;;;;18.60;61.04;101897.97;5060569;28;20275;-67
2021/07/22 00:26:26;;;;;;;9.93;9.03;;;;;;;18.86;59.53;101899.59;5060870;28;20169;-67
2021/07/22 00:28:51;;;;;;;12.40;9.97;;;;;;;18.90;59.71;101892.56;5061151;28;20405;-67
2021/07/22 00:31:17;;;;;;;12.47;9.47;;;;;;;18.61;60.26;101898.88;5058838;28;20189;-67
2021/07/22 00:33:42;;;;;;;10.47;9.47;;;;;;;18.85;58.90;101901.38;5060718;28;20165;-67
2021/07/22 00:36:12;;;;;;;10.33;9.00;;;;;;;18.82;58.74;101890.84;5061159;28;20176;-67
2021/07/22 00:38:37;;;;;;;10.03;8.97;;;;;;;18.72;58.92;101897.03;5044467;28;20174;-67
2021/07/22 00:41:04;;;;;;;10.90;9.07;;;;;;;18.52;59.48;101895.41;5040551;28;20470;-67
2021/07/22 00:43:29;;;;;;;9.93;8.93;;;;;;;18.74;58.96;101895.28;5040988;28;20181;-67
2021/07/22 00:45:54;;;;;;;10.37;9.27;;;;;;;18.65;58.79;101890.91;5040453;28;20405;-67
2021/07/22 00:48:20;;;;;;;10.60;9.50;;;;;;;18.74;58.86;101889.09;5040772;28;20540;-67
2021/07/22 00:50:45;;;;;;;9.67;8.67;;;;;;;18.62;58.98;101893.59;5040734;28;20248;-67
2021/07/22 00:53:10;;;;;;;9.60;8.70;;;;;;;18.30;60.30;101891.09;5040343;28;20166;-67
2021/07/22 00:55:36;;;;;;;9.47;8.57;;;;;;;18.30;60.59;101888.47;5040355;28;20559;-67
2021/07/22 00:58:01;;;;;;;10.13;8.40;;;;;;;18.23;60.83;101895.53;5040731;28;20166;-67
2021/07/22 01:00:26;;;;;;;9.07;8.27;;;;;;;18.26;60.76;101890.22;5040270;28;20532;-68
2021/07/22 01:02:52;;;;;;;10.00;9.00;;;;;;;18.12;61.04;101890.28;5040260;28;20449;-67
2021/07/22 01:05:17;;;;;;;12.43;9.10;;;;;;;18.04;61.22;101892.06;5040682;28;20559;-67
2021/07/22 01:07:42;;;;;;;11.53;10.20;;;;;;;18.09;61.14;101887.66;5040230;28;20221;-67
2021/07/22 01:10:09;;;;;;;9.50;8.60;;;;;;;18.09;60.79;101878.84;5039965;28;20202;-67
2021/07/22 01:12:34;;;;;;;10.33;8.93;;;;;;;17.93;61.59;101888.59;5054511;28;20173;-68
2021/07/22 01:14:59;;;;;;;10.93;9.83;;;;;;;18.10;61.08;101880.63;5059991;28;20408;-68
2021/07/22 01:18:03;;;;;;;11.60;9.13;;;;;;;17.88;61.72;101885.91;5059900;28;20188;-67
2021/07/22 01:20:28;;;;;;;11.20;9.97;;;;;;;18.16;61.14;101877.97;5038418;28;20542;-67
2021/07/22 01:22:57;;;;;;;11.00;9.90;;;;;;;17.97;61.68;101880.66;5055059;28;20470;-67
2021/07/22 01:25:23;;;;;;;10.63;9.53;;;;;;;17.93;61.40;101878.91;5054610;28;20269;-69
2021/07/22 01:27:50;;;;;;;11.33;9.83;;;;;;;17.75;62.45;101884.19;5039918;28;20471;-67
2021/07/22 01:30:17;;;;;;;10.90;9.80;;;;;;;17.93;61.99;101873.63;5039990;28;20488;-67
2021/07/22 01:32:43;;;;;;;12.10;9.87;;;;;;;18.12;60.90;101863.03;5039504;28;20417;-67
2021/07/22 01:35:09;;;;;;;9.77;8.70;;;;;;;17.42;62.48;101873.69;5039500;28;20423;-68
2021/07/22 01:37:37;;;;;;;12.10;10.60;;;;;;;17.61;62.23;101881.56;5039940;28;20810;-67
2021/07/22 01:40:03;;;;;;;10.73;9.50;;;;;;;17.87;62.36;101872.75;5048467;28;20459;-67
2021/07/22 01:42:30;;;;;;;9.83;8.93;;;;;;;18.14;61.61;101871.81;5059227;28;20412;-67
2021/07/22 01:44:56;;;;;;;10.70;8.43;;;;;;;18.16;61.67;101870.06;5059860;28;20396;-68
2021/07/22 01:47:21;;;;;;;10.80;9.40;;;;;;;18.21;61.54;101877.94;5059255;28;20398;-67
2021/07/22 01:49:47;;;;;;;12.17;9.47;;;;;;;18.30;60.85;101869.97;5059199;28;20439;-68
2021/07/22 01:52:12;;;;;;;9.97;8.97;;;;;;;17.94;60.89;101867.47;5059664;28;20223;-67
2021/07/22 01:54:37;;;;;;;10.47;9.10;;;;;;;17.94;61.59;101874.50;5059099;28;20166;-68
2021/07/22 01:57:03;;;;;;;10.90;8.70;;;;;;;18.16;60.35;101870.91;5059466;28;20166;-68
2021/07/22 01:59:35;;;;;;;10.63;9.07;;;;;;;18.44;60.22;101867.28;5057250;28;20178;-67
2021/07/22 02:02:05;;;;;;;9.83;8.60;;;;;;;17.89;60.01;101869.22;5059016;28;20181;-67
2021/07/22 02:04:31;;;;;;;9.30;8.27;;;;;;;18.21;60.23;101865.59;5058928;28;20408;-67
2021/07/22 02:06:56;;;;;;;9.57;8.10;;;;;;;17.92;60.67;101865.72;5058806;28;20416;-66
2021/07/22 02:09:22;;;;;;;11.70;8.67;;;;;;;17.97;59.91;101867.47;5039673;28;20717;-66
2021/07/22 02:11:47;;;;;;;9.73;8.73;;;;;;;17.49;61.68;101864.00;5039197;28;20397;-67
2021/07/22 02:14:12;;;;;;;10.50;8.70;;;;;;;17.22;61.99;101862.28;5038628;28;20174;-67
2021/07/22 02:16:40;;;;;;;9.73;8.53;;;;;;;18.09;60.60;101860.38;5038836;28;20190;-67
2021/07/22 02:19:06;;;;;;;12.37;10.13;;;;;;;18.29;59.87;101860.31;5038987;28;20424;-68
2021/07/22 02:21:31;;;;;;;9.83;8.50;;;;;;;18.29;59.60;101866.47;5038578;28;20384;-68
2021/07/22 02:23:56;;;;;;;9.73;8.83;;;;;;;18.27;58.95;101862.09;5038313;28;20218;-68
2021/07/22 02:26:22;;;;;;;9.33;8.33;;;;;;;18.16;59.71;101864.78;5039082;28;20162;-67
2021/07/22 02:28:47;;;;;;;11.63;10.40;;;;;;;18.28;59.76;101869.09;5037695;28;20170;-68
2021/07/22 02:31:12;;;;;;;9.70;8.70;;;;;;;17.92;60.36;101865.72;5038678;28;20226;-67
2021/07/22 02:33:38;;;;;;;9.00;8.10;;;;;;;18.05;59.86;101862.16;5039035;28;20174;-67
2021/07/22 02:36:03;;;;;;;13.07;8.80;;;;;;;17.80;60.02;101864.81;5039157;28;20188;-68
2021/07/22 02:38:29;;;;;;;10.77;8.73;;;;;;;18.15;59.42;101860.38;5038522;28;20178;-67
2021/07/22 02:40:54;;;;;;;11.03;9.93;;;;;;;17.99;60.02;101867.44;5038737;28;20421;-67
2021/07/22 02:43:19;;;;;;;10.57;9.57;;;;;;;17.74;61.27;101867.50;5038147;28;20178;-67
2021/07/22 02:45:44;;;;;;;9.40;8.40;;;;;;;17.78;60.95;101874.53;5038350;28;20216;-67
2021/07/22 02:48:10;;;;;;;12.30;9.13;;;;;;;17.81;61.20;101863.94;5038734;28;20208;-67
2021/07/22 02:50:35;;;;;;;9.63;8.73;;;;;;;17.96;60.77;101863.06;5038098;28;20584;-67
2021/07/22 02:53:01;;;;;;;11.23;9.53;;;;;;;17.45;61.92;101870.16;5038035;28;20205;-67
2021/07/22 02:55:27;;;;;;;9.93;8.97;;;;;;;17.72;61.20;101868.38;5038565;28;20166;-67
2021/07/22 02:57:52;;;;;;;12.13;8.80;;;;;;;17.65;61.26;101872.78;5038169;28;20413;-68
2021/07/22 03:00:17;;;;;;;10.57;9.00;;;;;;;17.42;62.25;101871.03;5038037;28;20442;-68
2021/07/22 03:02:43;;;;;;;10.30;9.20;;;;;;;17.46;62.17;101877.19;5038526;28;20169;-68
2021/07/22 03:05:08;;;;;;;10.73;9.57;;;;;;;17.48;61.97;101871.06;5038074;28;20555;-67
2021/07/22 03:07:34;;;;;;;10.53;9.37;;;;;;;17.50;62.23;101874.56;5037877;28;20174;-68
2021/07/22 03:09:59;;;;;;;12.33;9.60;;;;;;;17.47;61.79;101879.84;5038655;28;20205;-68
2021/07/22 03:12:25;;;;;;;11.90;9.20;;;;;;;17.12;63.31;101885.97;5037606;28;20392;-68
2021/07/22 03:14:50;;;;;;;10.37;9.33;;;;;;;17.06;63.30;101885.09;5038071;28;20261;-67
2021/07/22 03:17:15;;;;;;;10.83;9.57;;;;;;;17.29;62.79;101883.38;5038329;28;20547;-67
2021/07/22 03:19:41;;;;;;;9.90;9.00;;;;;;;17.44;62.51;101879.84;5038010;28;20175;-67
2021/07/22 03:22:06;;;;;;;11.73;9.13;;;;;;;17.51;62.06;101881.59;5037659;28;20186;-67
2021/07/22 03:24:32;;;;;;;10.60;9.50;;;;;;;17.33;62.73;101886.84;5037692;28;20224;-67
2021/07/22 03:26:57;;;;;;;10.20;9.20;;;;;;;17.40;62.57;101887.72;5037787;28;20194;-68
2021/07/22 03:29:23;;;;;;;9.47;8.47;;;;;;;17.37;62.38;101888.63;5037858;28;20857;-67
2021/07/22 03:31:48;;;;;;;10.33;8.83;;;;;;;17.30;62.73;101886.88;5039706;28;20260;-67
2021/07/22 03:34:14;;;;;;;11.23;8.70;;;;;;;17.45;61.95;101892.13;5057421;28;20173;-68
2021/07/22 03:36:39;;;;;;;13.00;9.47;;;;;;;17.54;62.32;101879.84;5057889;28;20539;-68
2021/07/22 03:39:04;;;;;;;12.33;9.60;;;;;;;17.68;62.20;101883.31;5057521;28;20170;-68
2021/07/22 03:41:30;;;;;;;10.10;8.23;;;;;;;17.62;61.73;101875.44;5060945;28;20169;-67
2021/07/22 03:43:55;;;;;;;10.30;9.13;;;;;;;17.62;61.42;101868.38;5061937;28;20169;-67
2021/07/22 03:46:20;;;;;;;11.63;9.10;;;;;;;17.78;61.28;101871.88;5061675;28;20174;-67
2021/07/22 03:48:46;;;;;;;10.30;9.40;;;;;;;17.63;61.74;101879.81;5061487;28;20170;-68
2021/07/22 03:51:11;;;;;;;10.40;9.40;;;;;;;17.75;61.98;101882.44;5061935;28;20173;-67
2021/07/22 03:53:36;;;;;;;10.43;9.20;;;;;;;18.12;60.29;101874.44;5061388;28;20414;-67
2021/07/22 03:56:02;;;;;;;11.53;9.47;;;;;;;17.70;60.84;101878.03;5061469;28;20208;-67
2021/07/22 03:58:27;;;;;;;13.70;10.10;;;;;;;17.92;61.07;101876.28;5061777;28;20169;-68
2021/07/22 04:00:56;;;;;;;10.43;8.40;;;;;;;18.01;60.75;101877.13;5059522;28;20505;-68
2021/07/22 04:03:22;;;;;;;10.00;9.00;;;;;;;18.44;59.31;101870.81;5061129;28;20177;-67
2021/07/22 04:05:47;;;;;;;9.80;8.30;;;;;;;18.10;59.76;101876.19;5061985;28;20639;-67
2021/07/22 04:08:12;;;;;;;9.90;8.70;;;;;;;18.48;58.52;101874.28;5061094;28;20182;-68
2021/07/22 04:10:38;;;;;;;11.10;10.00;;;;;;;18.50;58.34;101880.44;5061211;28;20212;-67
2021/07/22 04:13:03;;;;;;;9.87;8.90;;;;;;;18.54;58.62;101876.00;5061276;28;20208;-67
2021/07/22 04:15:29;;;;;;;10.73;9.63;;;;;;;18.48;58.69;101882.22;5059983;28;20189;-66
2021/07/22 04:17:55;;;;;;;9.73;8.77;;;;;;;18.59;59.09;101875.13;5059620;28;20208;-68
2021/07/22 04:20:23;;;;;;;9.70;8.70;;;;;;;18.75;58.57;101875.03;5061035;28;20665;-68
2021/07/22 04:22:49;;;;;;;8.87;7.97;;;;;;;18.62;58.06;101875.09;5054859;28;20745;-68
2021/07/22 04:25:14;;;;;;;9.40;8.50;;;;;;;18.61;58.25;101872.47;5054582;28;20430;-66
2021/07/22 04:27:40;;;;;;;10.73;9.40;;;;;;;18.82;57.62;101877.63;5074304;28;20427;-67
2021/07/22 04:30:06;;;;;;;9.77;8.77;;;;;;;18.68;57.66;101874.19;5060650;28;20213;-67
2021/07/22 04:32:31;;;;;;;9.30;8.40;;;;;;;18.91;57.66;101870.56;5080243;28;20181;-67
2021/07/22 04:34:57;;;;;;;8.80;7.90;;;;;;;18.77;58.20;101876.78;5081420;28;20419;-66
2021/07/22 04:37:22;;;;;;;8.83;8.03;;;;;;;18.55;57.87;101868.09;5080638;28;20196;-67
2021/07/22 04:39:47;;;;;;;10.23;8.53;;;;;;;18.90;57.13;101864.38;5080664;28;20256;-67
2021/07/22 04:42:13;;;;;;;9.00;8.10;;;;;;;18.65;56.66;101874.22;5080932;28;20176;-66
2021/07/22 04:44:38;;;;;;;9.60;8.40;;;;;;;18.93;55.16;101869.66;5070232;28;20318;-67
2021/07/22 04:47:04;;;;;;;7.90;7.20;;;;;;;18.58;54.66;101878.66;5059375;28;20234;-67
2021/07/22 04:49:29;;;;;;;10.80;7.30;;;;;;;19.16;54.28;101871.25;5045983;28;20210;-67
2021/07/22 04:51:57;;;;;;;9.20;8.00;;;;;;;18.55;55.23;101867.22;5059623;28;20268;-68
2021/07/22 04:54:22;;;;;;;10.13;7.70;;;;;;;19.07;53.94;101876.63;5059889;28;20178;-66
2021/07/22 04:56:47;;;;;;;13.27;8.00;;;;;;;19.16;53.66;101872.13;5059547;28;20421;-68
2021/07/22 04:59:12;;;;;;;8.13;7.13;;;;;;;19.23;55.04;101867.66;5059912;28;20205;-67
2021/07/22 05:01:38;;;;;;;8.07;7.37;;;;;;;19.56;53.28;101867.38;5059726;28;20255;-67
2021/07/22 05:04:03;;;;;;;8.40;7.37;;;;;;;19.16;53.85;101872.13;5040326;28;20178;-67
2021/07/22 05:06:28;;;;;;;9.43;7.40;;;;;;;18.89;55.51;101875.84;5055815;28;20178;-67
2021/07/22 05:08:54;;;;;;;8.50;7.43;;;;;;;19.21;54.63;101877.34;5060005;28;20192;-68
2021/07/22 05:11:19;;;;;;;7.83;7.07;;;;;;;19.23;54.31;101882.63;5054986;28;20445;-68
2021/07/22 05:13:44;;;;;;;8.10;7.27;;;;;;;18.97;53.35;101887.25;5045105;28;20196;-68
2021/07/22 05:16:10;;;;;;;7.30;6.70;;;;;;;19.19;52.15;101887.94;5055208;28;20444;-68
2021/07/22 05:18:35;;;;;;;10.97;6.70;;;;;;;19.55;51.59;101876.19;5040279;28;20512;-68
2021/07/22 05:21:05;;;;;;;7.23;6.53;;;;;;;19.59;51.87;101878.81;5039875;28;20189;-67
2021/07/22 05:23:30;;;;;;;8.17;7.37;;;;;;;19.44;51.35;101881.56;5040562;28;20212;-70
2021/07/22 05:25:56;;;;;;;8.50;7.70;;;;;;;20.17;49.72;101863.19;5043656;28;20472;-70
2021/07/22 05:28:21;;;;;;;13.60;9.10;;;;;;;19.87;50.34;101875.03;5046651;28;20472;-68
2021/07/22 05:30:46;;;;;;;8.43;6.57;;;;;;;20.06;49.91;101873.91;5044804;28;20244;-69
2021/07/22 05:33:12;;;;;;;8.60;6.23;;;;;;;20.31;49.16;101868.31;5059828;28;20547;-68
2021/07/22 05:35:37;;;;;;;9.60;6.50;;;;;;;20.58;48.23;101880.31;5054182;28;20186;-69
2021/07/22 05:38:03;;;;;;;8.63;6.50;;;;;;;20.32;48.17;101872.72;5054954;28;20186;-68
2021/07/22 05:40:28;;;;;;;8.47;6.03;;;;;;;19.83;49.30;101872.38;5056654;28;20182;-68
2021/07/22 05:42:54;;;;;;;6.17;5.43;;;;;;;20.32;48.69;101870.97;5059201;28;20220;-68
2021/07/22 05:45:20;;;;;;;10.07;6.30;;;;;;;21.13;47.76;101869.81;5059472;28;20558;-68
2021/07/22 05:47:45;;;;;;;7.03;6.33;;;;;;;21.44;46.23;101866.63;5055272;28;20407;-68
2021/07/22 05:50:10;;;;;;;7.53;5.97;;;;;;;21.64;45.42;101868.97;5059174;28;20212;-68
2021/07/22 05:52:36;;;;;;;7.43;5.80;;;;;;;20.81;47.28;101871.19;5054890;28;20174;-68
2021/07/22 05:55:01;;;;;;;6.63;5.83;;;;;;;21.29;46.91;101868.63;5039340;28;20163;-68
2021/07/22 05:57:26;;;;;;;8.00;6.20;;;;;;;21.06;45.88;101870.81;5039057;28;20182;-67
2021/07/22 05:59:52;;;;;;;8.10;5.80;;;;;;;21.15;45.62;101866.22;5040834;28;20180;-67
2021/07/22 06:02:17;;;;;;;7.17;6.23;;;;;;;20.65;47.79;101870.50;5039394;28;20377;-66
2021/07/22 06:04:43;;;;;;;8.13;6.13;;;;;;;21.63;45.02;101867.19;5041444;28;20629;-67
2021/07/22 06:07:08;;;;;;;8.43;6.30;;;;;;;21.45;45.10;101860.44;5051961;28;20205;-66
2021/07/22 06:09:33;;;;;;;7.97;5.87;;;;;;;21.44;45.73;101862.19;5061224;28;20254;-66
2021/07/22 06:11:58;;;;;;;6.70;6.00;;;;;;;20.62;47.39;101875.84;5040119;28;20193;-67
2021/07/22 06:14:24;;;;;;;9.83;6.30;;;;;;;21.27;46.12;101869.56;5073658;28;20268;-67
2021/07/22 06:16:49;;;;;;;8.90;6.00;;;;;;;19.70;49.49;101873.41;5069609;28;20226;-67
2021/07/22 06:19:14;;;;;;;9.90;5.77;;;;;;;19.22;50.69;101872.97;5038618;28;20451;-67
2021/07/22 06:21:40;;;;;;;10.97;5.80;;;;;;;20.60;46.83;101869.69;5062093;28;20541;-67
2021/07/22 06:24:12;;;;;;;7.27;6.20;;;;;;;21.23;45.20;101862.56;5075279;28;20528;-67
2021/07/22 06:26:37;;;;;;;12.33;6.00;;;;;;;23.34;41.52;101854.59;5074845;28;20427;-69
2021/07/22 06:29:03;;;;;;;6.03;5.20;;;;;;;24.37;38.71;101854.41;5073548;28;20181;-66
2021/07/22 06:31:28;;;;;;;7.43;5.13;;;;;;;24.14;38.08;101856.88;5075002;28;20219;-67
2021/07/22 06:33:55;;;;;;;6.50;5.10;;;;;;;23.68;39.05;101856.38;5074331;28;20234;-68
2021/07/22 06:36:21;;;;;;;5.53;4.93;;;;;;;21.53;44.07;101859.41;5072778;28;20184;-67
2021/07/22 06:38:46;;;;;;;5.53;4.90;;;;;;;25.26;37.12;101848.91;5077917;28;20878;-66
2021/07/22 06:41:11;;;;;;;5.27;4.80;;;;;;;26.92;33.60;101854.34;5074563;28;20193;-68
2021/07/22 06:43:37;;;;;;;4.90;4.40;;;;;;;26.50;34.59;101845.31;5071750;28;20228;-66
2021/07/22 06:46:02;;;;;;;8.90;5.70;;;;;;;26.89;33.81;101848.19;5090856;28;20551;-67
2021/07/22 06:48:27;;;;;;;7.00;4.77;;;;;;;26.48;34.22;101842.69;5076530;28;20188;-67
2021/07/22 06:50:52;;;;;;;5.03;4.43;;;;;;;25.91;35.52;101844.81;5073582;28;20189;-67
2021/07/22 06:53:18;;;;;;;5.43;4.93;;;;;;;26.45;34.36;101847.28;5081668;28;20179;-67
2021/07/22 06:55:43;;;;;;;5.10;4.70;;;;;;;23.94;38.40;101861.00;5076230;28;20181;-67
2021/07/22 06:58:09;;;;;;;5.50;5.00;;;;;;;24.24;39.14;101857.50;5067310;28;20185;-67
2021/07/22 07:00:35;;;;;;;6.30;5.70;;;;;;;23.79;39.49;101872.94;5066537;28;20172;-67
2021/07/22 07:03:05;;;;;;;8.03;5.30;;;;;;;22.85;42.30;101862.88;5076161;28;20204;-67
2021/07/22 07:05:31;;;;;;;12.43;5.73;;;;;;;23.65;40.59;101870.66;5064363;28;20443;-66
2021/07/22 07:07:56;;;;;;;7.53;5.30;;;;;;;23.53;41.14;101865.66;5051739;28;20443;-67
2021/07/22 07:10:23;;;;;;;7.70;5.63;;;;;;;22.93;41.56;101869.81;5050525;28;20710;-67
2021/07/22 07:12:49;;;;;;;6.00;5.40;;;;;;;23.09;41.14;101865.84;5065832;28;20232;-66
2021/07/22 07:15:14;;;;;;;6.30;5.70;;;;;;;24.17;39.28;101860.31;5082708;28;20463;-66
2021/07/22 07:17:39;;;;;;;5.80;5.30;;;;;;;24.47;38.42;101860.31;5056694;28;20185;-67
2021/07/22 07:20:05;;;;;;;7.10;5.40;;;;;;;23.58;39.72;101866.38;5089369;28;20169;-69
2021/07/22 07:22:30;;;;;;;6.77;5.10;;;;;;;23.66;40.52;101871.50;5074260;28;20236;-68
2021/07/22 07:24:56;;;;;;;5.73;5.10;;;;;;;23.86;39.29;101866.50;5083328;28;20206;-68
2021/07/22 07:27:21;;;;;;;7.20;5.30;;;;;;;23.65;40.48;101872.41;5084707;28;20541;-67
2021/07/22 07:29:46;;;;;;;7.20;5.40;;;;;;;23.10;41.43;101872.06;5079424;28;20173;-67
2021/07/22 07:32:12;;;;;;;6.50;5.90;;;;;;;22.98;41.13;101867.91;5079021;28;20538;-69
2021/07/22 07:34:37;;;;;;;5.60;5.10;;;;;;;24.06;39.40;101870.44;5069533;28;20188;-68
2021/07/22 07:37:03;;;;;;;5.93;5.43;;;;;;;24.40;38.43;101858.75;5051278;28;20185;-69
2021/07/22 07:39:28;;;;;;;5.93;5.33;;;;;;;24.44;39.25;101863.09;5059242;28;20639;-68
2021/07/22 07:41:54;;;;;;;5.67;5.20;;;;;;;23.86;40.49;101866.50;5058443;28;20519;-70
2021/07/22 07:44:19;;;;;;;6.53;5.20;;;;;;;22.90;42.02;101862.75;5074113;28;20185;-70
2021/07/22 07:46:45;;;;;;;9.73;5.60;;;;;;;24.74;38.09;101865.75;5051099;28;20182;-69
2021/07/22 07:49:10;;;;;;;7.77;5.33;;;;;;;24.81;38.63;101866.41;5060789;28;20465;-70
2021/07/22 07:51:35;;;;;;;9.53;7.10;;;;;;;24.83;38.50;101873.44;5057482;28;20200;-69
2021/07/22 07:54:01;;;;;;;6.13;5.53;;;;;;;23.85;40.17;101878.06;5049032;28;20209;-69
2021/07/22 07:56:26;;;;;;;6.90;5.30;;;;;;;23.26;41.37;101875.22;5073402;28;20183;-67
2021/07/22 07:58:52;;;;;;;8.10;5.33;;;;;;;23.15;41.60;101880.81;5069164;28;20183;-68
2021/07/22 08:01:17;;;;;;;8.43;5.70;;;;;;;23.50;40.88;101882.59;5058163;28;20178;-68
2021/07/22 08:03:42;;;;;;;10.20;5.80;;;;;;;23.46;41.29;101878.25;5055725;28;20217;-68
2021/07/22 08:06:08;;;;;;;6.03;5.47;;;;;;;22.65;42.27;101881.06;5067658;28;20183;-68
2021/07/22 08:08:33;;;;;;;5.90;5.40;;;;;;;22.78;42.24;101879.88;5071877;28;20197;-67
2021/07/22 08:10:59;;;;;;;7.30;5.57;;;;;;;22.79;42.40;101873.66;5070459;28;20569;-67
2021/07/22 08:13:25;;;;;;;5.97;5.37;;;;;;;22.81;42.08;101865.63;5053019;28;20190;-68
2021/07/22 08:15:51;;;;;;;6.50;5.60;;;;;;;22.43;42.80;101876.22;5074029;28;20243;-68
2021/07/22 08:18:16;;;;;;;6.63;5.83;;;;;;;22.35;42.72;101873.75;5064806;28;20423;-67
2021/07/22 08:20:42;;;;;;;7.63;5.47;;;;;;;22.51;43.09;101871.63;5070638;28;20202;-67
2021/07/22 08:23:07;;;;;;;5.73;5.20;;;;;;;22.39;42.76;101869.22;5054121;28;20241;-67
2021/07/22 08:25:33;;;;;;;6.90;5.10;;;;;;;22.90;42.02;101868.09;5044167;28;20261;-67
2021/07/22 08:27:58;;;;;;;6.23;5.67;;;;;;;23.10;41.94;101864.94;5059543;28;20181;-67
2021/07/22 08:30:24;;;;;;;7.03;5.13;;;;;;;23.55;41.28;101867.34;5065243;28;20185;-67
2021/07/22 08:32:49;;;;;;;5.63;5.10;;;;;;;22.82;42.87;101870.91;5054560;28;20193;-67
2021/07/22 08:35:14;;;;;;;5.63;5.07;;;;;;;22.83;43.27;101870.00;5058897;28;20204;-66
2021/07/22 08:37:41;;;;;;;6.17;5.57;;;;;;;22.45;43.99;101863.81;5049949;28;20193;-66
2021/07/22 08:40:11;;;;;;;6.90;6.17;;;;;;;23.13;42.45;101864.88;5074673;28;20300;-66
2021/07/22 08:42:40;;;;;;;7.77;5.80;;;;;;;23.77;41.68;101869.41;5066509;28;20543;-66
2021/07/22 08:45:06;;;;;;;5.70;5.27;;;;;;;23.39;41.69;101863.34;5066842;28;20473;-66
2021/07/22 08:47:32;;;;;;;6.80;5.27;;;;;;;24.13;40.34;101856.00;5056144;28;20934;-66
2021/07/22 08:49:58;;;;;;;5.50;5.10;;;;;;;22.98;42.36;101852.81;5060847;28;20467;-66
2021/07/22 08:52:23;;;;;;;6.27;5.60;;;;;;;23.35;41.56;101851.03;5065265;28;20185;-68
2021/07/22 08:54:48;;;;;;;6.00;5.40;;;;;;;23.66;40.90;101851.06;5056354;28;20198;-68
2021/07/22 08:57:16;;;;;;;6.17;5.57;;;;;;;23.07;42.94;101856.16;5070776;28;20267;-69
2021/07/22 08:59:41;;;;;;;5.90;5.40;;;;;;;23.22;41.87;101863.81;5075209;28;20165;-68
2021/07/22 09:02:07;;;;;;;5.07;4.67;;;;;;;23.34;41.79;101858.16;5056507;28;20517;-68
2021/07/22 09:04:53;;;;;;;7.70;6.90;;;;;;;23.16;41.32;101855.97;5044515;28;20239;-68
2021/07/22 09:07:19;;;;;;;6.50;5.10;;;;;;;22.80;42.15;101854.16;5071912;28;20181;-68
2021/07/22 09:10:04;;;;;;;7.60;5.50;;;;;;;23.44;41.23;101850.78;5060609;28;20471;-68
2021/07/22 09:12:44;;;;;;;5.67;5.17;;;;;;;23.05;42.11;101857.06;5064025;28;20432;-67
2021/07/22 09:15:12;;;;;;;6.27;5.67;;;;;;;24.05;39.77;101845.56;5062025;28;20535;-69
2021/07/22 09:17:37;;;;;;;6.87;5.33;;;;;;;24.27;38.69;101841.41;5062874;28;20510;-68
2021/07/22 09:20:08;;;;;;;9.43;7.70;;;;;;;24.20;40.09;101836.25;5064060;28;20538;-67
2021/07/22 09:22:40;;;;;;;6.40;5.80;;;;;;;24.30;39.68;101842.19;5044808;28;20236;-67
2021/07/22 09:25:09;;;;;;;6.50;5.10;;;;;;;24.35;39.06;101844.69;5048528;28;20447;-68
2021/07/22 09:27:42;;;;;;;6.30;5.27;;;;;;;23.90;39.60;101838.03;5069863;28;20446;-67
2021/07/22 09:30:12;;;;;;;5.57;5.10;;;;;;;23.39;40.82;101850.03;5045732;28;20801;-65
2021/07/22 09:32:40;;;;;;;7.27;5.60;;;;;;;23.61;40.88;101846.81;5045484;28;20445;-67
2021/07/22 09:35:10;;;;;;;6.00;5.40;;;;;;;23.29;41.27;101845.91;5050897;28;20451;-65
2021/07/22 09:37:37;;;;;;;5.80;5.30;;;;;;;23.05;41.83;101851.75;5037529;28;20440;-67
2021/07/22 09:40:04;;;;;;;6.40;5.90;;;;;;;23.73;40.48;101849.13;5072196;28;20477;-70
2021/07/22 09:42:40;;;;;;;6.30;5.30;;;;;;;23.37;41.10;101854.53;5042249;28;20475;-68
2021/07/22 09:45:16;;;;;;;6.00;5.30;;;;;;;23.54;41.05;101851.41;5059572;28;20434;-70
2021/07/22 09:47:42;;;;;;;9.60;5.77;;;;;;;23.51;41.39;101854.16;5053715;28;20541;-69
2021/07/22 09:50:13;;;;;;;13.63;5.50;;;;;;;23.66;40.77;101853.75;5060020;28;20855;-71
2021/07/22 09:52:39;;;;;;;7.97;6.17;;;;;;;23.68;40.91;101848.41;5069091;28;20189;-66
2021/07/22 09:55:23;;;;;;;9.07;5.80;;;;;;;23.59;41.24;101853.97;5069067;28;20431;-67
2021/07/22 09:57:52;;;;;;;6.50;5.90;;;;;;;23.74;40.39;101850.88;5057412;28;20194;-65
2021/07/22 10:00:17;;;;;;;6.23;5.63;;;;;;;23.35;41.10;101854.59;5070013;28;20412;-66
2021/07/22 10:02:43;;;;;;;6.97;5.40;;;;;;;23.25;41.28;101854.88;5054815;28;20476;-67
2021/07/22 10:05:09;;;;;;;6.20;5.60;;;;;;;23.16;41.54;101855.97;5059372;28;20192;-68
2021/07/22 10:07:36;;;;;;;6.17;5.57;;;;;;;24.10;39.56;101849.88;5050133;28;20340;-68
2021/07/22 10:10:02;;;;;;;5.77;5.37;;;;;;;23.72;40.12;101847.41;5074175;28;20459;-68
2021/07/22 10:12:29;;;;;;;5.50;5.10;;;;;;;23.61;40.78;101842.38;5059894;28;20415;-69
2021/07/22 10:14:58;;;;;;;6.13;5.33;;;;;;;23.98;39.56;101851.13;5075252;28;20498;-69
2021/07/22 10:17:26;;;;;;;5.70;5.20;;;;;;;23.57;40.69;101850.47;5052857;28;20448;-68
2021/07/22 10:19:52;;;;;;;6.10;5.50;;;;;;;24.01;39.77;101835.91;5057100;28;20897;-69
2021/07/22 10:22:18;;;;;;;5.50;5.00;;;;;;;23.64;40.14;101850.25;5056251;28;20566;-69
2021/07/22 10:24:43;;;;;;;5.67;5.20;;;;;;;23.36;41.01;101842.16;5056930;28;20176;-69
2021/07/22 10:27:09;;;;;;;6.63;5.73;;;;;;;24.22;39.03;101841.56;5050658;28;20838;-69
2021/07/22 10:29:35;;;;;;;6.23;5.63;;;;;;;23.60;40.41;101837.94;5037019;28;20170;-70
2021/07/22 10:32:01;;;;;;;7.50;5.97;;;;;;;24.62;38.35;101831.47;5037788;28;20452;-69
2021/07/22 10:34:27;;;;;;;5.50;5.00;;;;;;;23.81;39.79;101839.13;5043206;28;20547;-69
2021/07/22 10:36:52;;;;;;;6.00;5.40;;;;;;;23.61;40.13;101839.72;5053143;28;20768;-69
2021/07/22 10:39:56;;;;;;;5.80;5.20;;;;;;;23.44;40.37;101837.50;5039409;28;20436;-69
2021/07/22 10:42:47;;;;;;;5.90;5.43;;;;;;;23.89;40.28;101828.28;5045091;28;20213;-68
2021/07/22 10:45:26;;;;;;;6.43;5.93;;;;;;;23.36;40.29;101840.34;5038481;28;20431;-67
2021/07/22 10:48:03;;;;;;;6.73;5.70;;;;;;;23.45;40.43;101833.03;5037353;28;20451;-68
2021/07/22 10:50:38;;;;;;;6.57;5.93;;;;;;;24.11;38.91;101828.56;5047908;28;20428;-69
2021/07/22 10:53:04;;;;;;;6.13;5.63;;;;;;;24.85;37.22;101822.72;5037283;28;20408;-69
2021/07/22 10:55:42;;;;;;;6.17;5.60;;;;;;;25.14;37.03;101812.84;5037249;28;20659;-67
2021/07/22 10:58:29;;;;;;;5.63;5.13;;;;;;;25.11;36.86;101819.16;5039899;28;20445;-68
2021/07/22 11:00:54;;;;;;;6.50;5.90;;;;;;;24.54;37.62;101818.34;5037356;28;20408;-68
2021/07/22 11:06:13;;;;;;;6.30;5.40;;;;;;;25.00;36.05;101811.53;5041336;28;20212;-69
2021/07/22 11:08:40;;;;;;;5.83;5.33;;;;;;;25.68;35.27;101813.63;5039460;28;20443;-67
2021/07/22 11:11:07;;;;;;;5.30;4.90;;;;;;;24.49;37.32;101802.50;5040936;28;20474;-67
2021/07/22 11:16:25;;;;;;;5.30;4.80;;;;;;;24.69;37.02;101811.69;5067882;28;20876;-67
2021/07/22 11:18:51;;;;;;;8.00;5.30;;;;;;;25.04;36.97;101804.28;5058338;28;20641;-67
2021/07/22 11:21:17;;;;;;;7.57;4.90;;;;;;;24.10;38.22;101802.81;5043420;28;20455;-68
2021/07/22 11:23:52;;;;;;;7.97;5.43;;;;;;;24.49;37.09;101810.50;5040350;28;20541;-67
2021/07/22 11:26:21;;;;;;;5.53;5.03;;;;;;;23.67;38.52;101812.03;5040632;28;20422;-68